Time;durP1;ratioP1;P1;durP2;ratioP2;P2;SDS_P1;SDS_P2;PMS_P1;PMS_P2;Temp;Humidity;BMP_temperature;BMP_pressure;BME280_temperature;BME280_humidity;BME280_pressure;Samples;Min_cycle;Max_cycle;Signal;HPM_P1;HPM_P2
2022/08/30 00:01:05;;;;;;;9.57;5.93;;;28.40;99.90;;;;;;4154344;28;20045;-66
2022/08/30 00:03:16;;;;;;;10.98;6.20;;;28.40;99.90;;;;;;4163956;28;20100;-67
2022/08/30 00:05:22;;;;;;;8.10;5.60;;;28.40;99.90;;;;;;4158134;28;20746;-67
2022/08/30 00:07:26;;;;;;;7.63;5.07;;;28.50;99.90;;;;;;4156250;28;20050;-66
2022/08/30 00:09:34;;;;;;;7.97;4.93;;;28.50;99.90;;;;;;4157323;28;20115;-67
2022/08/30 00:11:38;;;;;;;5.90;4.15;;;28.50;99.90;;;;;;4156519;28;20144;-67
2022/08/30 00:13:43;;;;;;;7.30;4.32;;;28.50;99.90;;;;;;4157154;28;20560;-67
2022/08/30 00:15:48;;;;;;;7.57;4.13;;;28.60;99.90;;;;;;4157847;28;20480;-67
2022/08/30 00:17:53;;;;;;;5.32;4.22;;;28.60;99.90;;;;;;4153176;28;20068;-67
2022/08/30 00:19:57;;;;;;;9.52;4.70;;;28.70;99.90;;;;;;4166705;28;20041;-67
2022/08/30 00:22:05;;;;;;;7.95;3.70;;;28.70;99.90;;;;;;4164161;28;20728;-67
2022/08/30 00:24:10;;;;;;;7.82;4.10;;;28.80;99.90;;;;;;4163125;28;20126;-67
2022/08/30 00:26:15;;;;;;;7.22;4.95;;;28.80;99.90;;;;;;4168750;28;20338;-66
2022/08/30 00:28:21;;;;;;;8.43;4.38;;;28.90;99.90;;;;;;4171083;28;20056;-66
2022/08/30 00:30:26;;;;;;;9.65;4.88;;;28.80;99.90;;;;;;4159825;28;20613;-67
2022/08/30 00:32:31;;;;;;;8.70;4.50;;;28.80;99.90;;;;;;4155700;28;20059;-67
2022/08/30 00:34:37;;;;;;;7.78;4.60;;;28.90;99.90;;;;;;4154526;28;20502;-67
2022/08/30 00:36:43;;;;;;;7.30;4.72;;;29.00;99.90;;;;;;4152578;28;20531;-66
2022/08/30 00:38:48;;;;;;;6.43;4.13;;;29.00;99.90;;;;;;4157858;28;20121;-67
2022/08/30 00:40:55;;;;;;;7.07;4.10;;;29.10;99.90;;;;;;4138093;28;20758;-69
2022/08/30 00:42:59;;;;;;;6.07;3.03;;;29.10;99.90;;;;;;4152770;28;20042;-67
2022/08/30 00:45:26;;;;;;;8.52;3.33;;;29.10;99.90;;;;;;4160787;28;20076;-67
2022/08/30 00:47:33;;;;;;;5.35;2.50;;;29.10;99.90;;;;;;4140287;28;20084;-67
2022/08/30 00:49:38;;;;;;;5.63;3.45;;;29.10;99.90;;;;;;4144429;28;20049;-67
2022/08/30 00:51:43;;;;;;;5.53;2.75;;;29.10;99.90;;;;;;4154303;28;20152;-67
2022/08/30 00:53:54;;;;;;;5.90;3.10;;;29.20;99.90;;;;;;4175079;28;20114;-67
2022/08/30 00:55:58;;;;;;;7.43;2.58;;;29.20;99.90;;;;;;4159111;28;20053;-68
2022/08/30 00:58:04;;;;;;;6.43;2.50;;;29.20;99.90;;;;;;4177285;28;20060;-67
2022/08/30 01:00:13;;;;;;;5.72;2.58;;;29.20;99.90;;;;;;4177515;28;20095;-67
2022/08/30 01:02:18;;;;;;;6.32;2.25;;;29.10;99.90;;;;;;4169413;28;20057;-67
2022/08/30 01:04:24;;;;;;;9.50;2.90;;;29.20;99.90;;;;;;4163286;28;20645;-67
2022/08/30 01:06:32;;;;;;;5.88;2.33;;;29.10;99.90;;;;;;4128385;28;20141;-67
2022/08/30 01:08:37;;;;;;;9.18;2.90;;;29.20;99.90;;;;;;4162540;28;20041;-67
2022/08/30 01:10:42;;;;;;;5.68;2.65;;;29.30;99.90;;;;;;4163248;28;20065;-67
2022/08/30 01:12:51;;;;;;;6.22;2.90;;;29.30;99.90;;;;;;4161613;28;20085;-67
2022/08/30 01:14:56;;;;;;;5.15;2.90;;;29.40;99.90;;;;;;4163225;28;20057;-66
2022/08/30 01:17:00;;;;;;;5.75;3.28;;;29.40;99.90;;;;;;4162499;28;20057;-67
2022/08/30 01:19:26;;;;;;;6.20;3.10;;;29.40;99.90;;;;;;4162505;28;20042;-67
2022/08/30 01:21:41;;;;;;;6.95;3.35;;;29.50;99.90;;;;;;4161853;28;20133;-67
2022/08/30 01:23:47;;;;;;;5.57;3.10;;;29.60;99.90;;;;;;4163365;28;20605;-67
2022/08/30 01:25:56;;;;;;;4.80;3.28;;;29.60;99.90;;;;;;4162998;28;20033;-67
2022/08/30 01:28:07;;;;;;;4.97;3.33;;;29.60;99.90;;;;;;4161625;28;20077;-67
2022/08/30 01:30:12;;;;;;;4.97;3.00;;;29.70;99.90;;;;;;4155176;28;20076;-67
2022/08/30 01:32:18;;;;;;;5.95;3.28;;;29.70;99.90;;;;;;4157362;28;20053;-67
2022/08/30 01:34:24;;;;;;;4.40;3.45;;;29.70;99.90;;;;;;4156389;28;20041;-67
2022/08/30 01:36:29;;;;;;;6.70;4.43;;;29.80;99.90;;;;;;4160163;28;20053;-67
2022/08/30 01:38:46;;;;;;;6.32;4.28;;;29.90;99.90;;;;;;4162760;28;20107;-67
2022/08/30 01:40:55;;;;;;;9.85;5.13;;;30.00;99.90;;;;;;4161527;28;20053;-67
2022/08/30 01:43:02;;;;;;;7.53;5.50;;;29.90;99.90;;;;;;4171567;28;20045;-67
2022/08/30 01:45:10;;;;;;;8.25;4.88;;;29.80;99.90;;;;;;4162800;28;20037;-67
2022/08/30 01:47:17;;;;;;;6.20;4.43;;;29.90;99.90;;;;;;4161946;28;20037;-67
2022/08/30 01:49:21;;;;;;;7.93;5.00;;;30.00;99.90;;;;;;4165918;28;20059;-67
2022/08/30 01:51:30;;;;;;;8.77;4.90;;;29.90;99.90;;;;;;4173638;28;20066;-68
2022/08/30 01:53:34;;;;;;;7.63;5.00;;;29.90;99.90;;;;;;4162977;28;20065;-67
2022/08/30 01:55:39;;;;;;;7.63;5.00;;;30.00;99.90;;;;;;4161141;28;20478;-67
2022/08/30 01:57:48;;;;;;;8.93;5.47;;;30.10;99.90;;;;;;4162573;28;20056;-68
2022/08/30 01:59:53;;;;;;;7.00;5.07;;;30.20;99.90;;;;;;4159863;28;20594;-68
2022/08/30 02:01:57;;;;;;;9.50;5.85;;;30.20;99.90;;;;;;4161861;28;20107;-67
2022/08/30 02:04:02;;;;;;;7.38;5.75;;;30.00;99.90;;;;;;4161356;28;20072;-67
2022/08/30 02:06:11;;;;;;;6.15;5.43;;;30.20;99.90;;;;;;4162764;28;20112;-68
2022/08/30 02:08:16;;;;;;;7.25;5.20;;;30.20;99.90;;;;;;4161860;28;20516;-67
2022/08/30 02:10:23;;;;;;;7.10;5.10;;;30.20;99.90;;;;;;4160735;28;20104;-67
2022/08/30 02:12:29;;;;;;;7.93;5.50;;;30.30;99.90;;;;;;4162158;28;20061;-67
2022/08/30 02:14:34;;;;;;;7.50;4.90;;;30.40;99.90;;;;;;4162388;28;20136;-67
2022/08/30 02:16:41;;;;;;;6.47;5.53;;;30.50;99.90;;;;;;4162430;28;20051;-67
2022/08/30 02:18:46;;;;;;;7.07;5.13;;;30.50;99.90;;;;;;4162295;28;20699;-67
2022/08/30 02:20:50;;;;;;;6.35;4.30;;;30.60;99.90;;;;;;4162148;28;20068;-67
2022/08/30 02:22:57;;;;;;;7.15;4.57;;;30.60;99.90;;;;;;4162557;28;20133;-68
2022/08/30 02:25:05;;;;;;;6.47;4.47;;;30.80;99.90;;;;;;4162461;28;20045;-69
2022/08/30 02:27:24;;;;;;;7.47;3.92;;;30.90;99.90;;;;;;4162236;28;20053;-67
2022/08/30 02:29:31;;;;;;;4.55;3.20;;;30.90;99.90;;;;;;4162360;28;20091;-67
2022/08/30 02:31:35;;;;;;;6.25;3.72;;;30.70;99.90;;;;;;4162268;28;20588;-68
2022/08/30 02:33:40;;;;;;;7.10;3.22;;;30.80;99.90;;;;;;4162213;28;20049;-69
2022/08/30 02:35:50;;;;;;;5.90;3.72;;;30.90;99.90;;;;;;4143231;28;20112;-66
2022/08/30 02:37:55;;;;;;;6.88;3.80;;;30.90;99.90;;;;;;4162067;28;20137;-68
2022/08/30 02:39:59;;;;;;;6.03;3.50;;;31.00;99.90;;;;;;4162149;28;20087;-66
2022/08/30 02:42:07;;;;;;;9.13;4.13;;;31.00;99.90;;;;;;4142947;28;20054;-67
2022/08/30 02:44:13;;;;;;;17.83;4.13;;;31.00;99.90;;;;;;4162166;28;20044;-67
2022/08/30 02:46:18;;;;;;;14.23;4.60;;;31.00;99.90;;;;;;4162138;28;20046;-66
2022/08/30 02:48:26;;;;;;;7.03;4.07;;;31.20;99.90;;;;;;4162070;28;20102;-68
2022/08/30 02:50:31;;;;;;;8.73;3.90;;;31.20;99.90;;;;;;4161581;28;20038;-68
2022/08/30 02:52:36;;;;;;;6.20;4.50;;;31.10;99.90;;;;;;4171091;28;20084;-68
2022/08/30 02:54:42;;;;;;;5.38;3.35;;;30.90;99.90;;;;;;4171133;28;20546;-68
2022/08/30 02:56:48;;;;;;;4.63;3.35;;;30.80;99.90;;;;;;4147822;28;20059;-68
2022/08/30 02:58:52;;;;;;;5.50;3.35;;;30.90;99.90;;;;;;4149100;28;20140;-68
2022/08/30 03:00:56;;;;;;;4.35;3.55;;;31.10;99.90;;;;;;4160648;28;20045;-68
2022/08/30 03:03:02;;;;;;;5.63;3.40;;;31.40;99.90;;;;;;4159909;28;20049;-68
2022/08/30 03:05:08;;;;;;;5.57;3.17;;;31.40;99.90;;;;;;4161116;28;20571;-69
2022/08/30 03:07:17;;;;;;;5.93;3.63;;;31.50;99.90;;;;;;4129352;28;20038;-68
2022/08/30 03:09:21;;;;;;;4.28;3.03;;;31.30;99.90;;;;;;4170178;28;20081;-69
2022/08/30 03:11:26;;;;;;;5.57;3.53;;;31.30;99.90;;;;;;4176125;28;20041;-68
2022/08/30 03:13:30;;;;;;;6.40;3.17;;;31.40;99.90;;;;;;4169847;28;20069;-67
2022/08/30 03:15:39;;;;;;;4.25;2.78;;;31.40;99.90;;;;;;4161210;28;20061;-67
2022/08/30 03:17:45;;;;;;;4.38;2.70;;;31.30;99.90;;;;;;4159998;28;20649;-69
2022/08/30 03:19:53;;;;;;;5.90;3.25;;;31.40;99.90;;;;;;4160415;28;20037;-68
2022/08/30 03:21:57;;;;;;;5.10;2.70;;;31.30;99.90;;;;;;4160969;28;20852;-68
2022/08/30 03:24:04;;;;;;;4.18;2.70;;;31.40;99.90;;;;;;4163696;28;20049;-68
2022/08/30 03:26:14;;;;;;;4.28;3.00;;;31.50;99.90;;;;;;4162617;28;20114;-68
2022/08/30 03:28:19;;;;;;;4.10;3.30;;;31.70;99.90;;;;;;4168969;28;20037;-67
2022/08/30 03:30:24;;;;;;;7.25;3.13;;;31.70;99.90;;;;;;4159879;28;20385;-67
2022/08/30 03:32:32;;;;;;;7.28;3.50;;;31.70;99.90;;;;;;4160082;28;20056;-68
2022/08/30 03:34:40;;;;;;;4.20;3.20;;;31.70;99.90;;;;;;4159142;28;20061;-67
2022/08/30 03:36:47;;;;;;;6.13;4.00;;;31.60;99.90;;;;;;4160782;28;20092;-67
2022/08/30 03:38:51;;;;;;;6.57;3.50;;;31.60;99.90;;;;;;4159952;28;20091;-68
2022/08/30 03:40:56;;;;;;;5.18;3.25;;;31.80;99.90;;;;;;4156960;28;20053;-67
2022/08/30 03:43:02;;;;;;;6.82;3.60;;;32.00;99.90;;;;;;4159457;28;20061;-67
2022/08/30 03:45:08;;;;;;;4.35;3.40;;;31.80;99.90;;;;;;4141745;28;20129;-67
2022/08/30 03:47:12;;;;;;;7.55;3.47;;;31.90;99.90;;;;;;4160925;28;20427;-67
2022/08/30 03:49:18;;;;;;;4.82;3.35;;;32.00;99.90;;;;;;4160938;28;20475;-68
2022/08/30 03:51:26;;;;;;;7.20;3.75;;;32.00;99.90;;;;;;4160912;28;20041;-68
2022/08/30 03:53:31;;;;;;;4.15;3.20;;;31.80;99.90;;;;;;4161420;28;20072;-68
2022/08/30 03:55:35;;;;;;;4.32;3.08;;;31.80;99.90;;;;;;4161306;28;20076;-68
2022/08/30 03:57:42;;;;;;;5.50;3.08;;;32.00;99.90;;;;;;4161083;28;20620;-68
2022/08/30 03:59:47;;;;;;;4.35;3.00;;;32.20;99.90;;;;;;4160969;28;20563;-68
2022/08/30 04:01:52;;;;;;;5.55;3.33;;;32.30;99.90;;;;;;4161249;28;20080;-68
2022/08/30 04:04:00;;;;;;;6.57;2.92;;;32.50;99.90;;;;;;4161397;28;20061;-68
2022/08/30 04:06:07;;;;;;;6.93;3.03;;;32.60;99.90;;;;;;4160913;28;20053;-68
2022/08/30 04:08:13;;;;;;;4.50;3.20;;;32.70;99.90;;;;;;4161070;28;20573;-68
2022/08/30 04:10:21;;;;;;;6.18;3.03;;;32.80;99.90;;;;;;4159843;28;20041;-68
2022/08/30 04:12:26;;;;;;;8.02;2.80;;;32.90;99.90;;;;;;4160747;28;20065;-68
2022/08/30 04:14:31;;;;;;;4.47;2.83;;;32.90;99.90;;;;;;4161139;28;20050;-69
2022/08/30 04:16:40;;;;;;;4.03;2.90;;;33.00;99.80;;;;;;4160178;28;20115;-69
2022/08/30 04:18:45;;;;;;;3.72;2.67;;;33.10;99.90;;;;;;4160900;28;20641;-69
2022/08/30 04:20:51;;;;;;;3.65;2.38;;;33.10;99.90;;;;;;4175823;28;20510;-69
2022/08/30 04:23:01;;;;;;;4.35;2.58;;;33.20;99.40;;;;;;4160944;28;20099;-69
2022/08/30 04:25:06;;;;;;;3.42;2.50;;;33.30;99.30;;;;;;4160806;28;20519;-69
2022/08/30 04:27:21;;;;;;;4.35;2.40;;;33.30;99.10;;;;;;4161028;28;20041;-68
2022/08/30 04:29:31;;;;;;;3.15;2.30;;;33.40;98.80;;;;;;4160694;28;20045;-69
2022/08/30 04:31:36;;;;;;;4.93;2.60;;;33.50;98.50;;;;;;4159536;28;20041;-68
2022/08/30 04:33:40;;;;;;;2.78;2.30;;;33.60;98.40;;;;;;4160987;28;20061;-69
2022/08/30 04:35:49;;;;;;;4.80;2.58;;;33.60;98.30;;;;;;4160331;28;20611;-69
2022/08/30 04:37:56;;;;;;;4.00;2.22;;;33.70;97.80;;;;;;4160941;28;20485;-68
2022/08/30 04:40:01;;;;;;;3.90;2.15;;;33.70;97.70;;;;;;4160587;28;20056;-69
2022/08/30 04:42:10;;;;;;;2.92;2.25;;;33.80;97.50;;;;;;4160800;28;20565;-69
2022/08/30 04:44:15;;;;;;;3.10;2.13;;;33.90;97.00;;;;;;4160901;28;20103;-69
2022/08/30 04:46:23;;;;;;;3.55;2.60;;;33.90;96.80;;;;;;4160743;28;20069;-69
2022/08/30 04:48:33;;;;;;;3.85;2.13;;;33.90;96.50;;;;;;4160879;28;20041;-69
2022/08/30 04:50:37;;;;;;;4.90;2.40;;;33.90;96.30;;;;;;4160256;28;20481;-69
2022/08/30 04:52:47;;;;;;;3.83;2.28;;;33.90;96.30;;;;;;4159754;28;20059;-66
2022/08/30 04:54:56;;;;;;;4.35;2.35;;;33.80;95.90;;;;;;4160631;28;20396;-66
2022/08/30 04:57:02;;;;;;;5.60;2.75;;;33.70;96.00;;;;;;4160450;28;20069;-66
2022/08/30 04:59:08;;;;;;;7.68;2.70;;;33.70;96.90;;;;;;4160745;28;20041;-67
2022/08/30 05:01:19;;;;;;;3.85;2.17;;;33.70;96.90;;;;;;4160380;28;20133;-67
2022/08/30 05:03:27;;;;;;;6.63;2.38;;;33.80;97.30;;;;;;4160849;28;20448;-69
2022/08/30 05:05:41;;;;;;;4.68;2.70;;;33.90;97.00;;;;;;4160136;28;20053;-67
2022/08/30 05:07:50;;;;;;;3.80;2.72;;;33.90;95.60;;;;;;4160539;28;20120;-67
2022/08/30 05:09:55;;;;;;;3.90;2.30;;;34.00;96.20;;;;;;4160512;28;20057;-67
2022/08/30 05:11:59;;;;;;;5.00;2.38;;;34.10;96.30;;;;;;4159038;28;20096;-67
2022/08/30 05:14:09;;;;;;;3.05;1.92;;;34.20;96.20;;;;;;4159571;28;20042;-66
2022/08/30 05:16:16;;;;;;;3.78;2.33;;;34.20;95.90;;;;;;4175604;28;20048;-66
2022/08/30 05:18:21;;;;;;;3.25;2.20;;;34.10;95.10;;;;;;4160698;28;20051;-65
2022/08/30 05:20:34;;;;;;;6.00;3.90;;;34.20;95.00;;;;;;4160488;28;20583;-66
2022/08/30 05:22:40;;;;;;;13.25;11.85;;;34.30;95.30;;;;;;4160602;28;20069;-66
2022/08/30 05:24:44;;;;;;;8.15;5.70;;;34.10;95.80;;;;;;4175626;28;20132;-65
2022/08/30 05:26:51;;;;;;;5.68;3.88;;;34.00;96.20;;;;;;4159910;28;20712;-64
2022/08/30 05:28:56;;;;;;;6.43;3.80;;;34.00;95.80;;;;;;4163351;28;20053;-63
2022/08/30 05:31:03;;;;;;;5.65;4.20;;;34.00;96.30;;;;;;4163363;28;20080;-63
2022/08/30 05:33:16;;;;;;;5.38;4.47;;;33.80;95.70;;;;;;4163236;28;20103;-64
2022/08/30 05:35:21;;;;;;;6.50;3.45;;;33.70;95.60;;;;;;4163136;28;20061;-66
2022/08/30 05:37:28;;;;;;;7.00;3.65;;;33.70;95.40;;;;;;4162830;28;20065;-64
2022/08/30 05:39:35;;;;;;;5.20;3.85;;;33.70;95.80;;;;;;4160822;28;20053;-64
2022/08/30 05:41:56;;;;;;;5.13;3.80;;;33.70;95.50;;;;;;4162234;28;20050;-63
2022/08/30 05:44:02;;;;;;;4.80;3.47;;;33.70;95.90;;;;;;4162028;28;20049;-64
2022/08/30 05:46:12;;;;;;;7.30;3.10;;;33.60;95.70;;;;;;4146714;28;20041;-64
2022/08/30 05:48:17;;;;;;;4.68;3.72;;;33.70;95.10;;;;;;4146558;28;20045;-64
2022/08/30 05:50:22;;;;;;;3.78;3.10;;;33.70;95.10;;;;;;4146474;28;20052;-62
2022/08/30 05:52:34;;;;;;;3.70;2.75;;;33.80;95.20;;;;;;4143963;28;20146;-63
2022/08/30 05:54:41;;;;;;;4.22;2.90;;;33.90;95.20;;;;;;4146571;28;20049;-63
2022/08/30 05:56:46;;;;;;;3.83;2.97;;;34.00;94.90;;;;;;4146141;28;20042;-64
2022/08/30 05:58:54;;;;;;;4.35;2.90;;;34.00;95.20;;;;;;4146233;28;20409;-62
2022/08/30 06:00:58;;;;;;;5.93;3.00;;;34.20;95.20;;;;;;4146364;28;20052;-62
2022/08/30 06:03:02;;;;;;;4.93;3.08;;;34.30;95.10;;;;;;4146252;28;20064;-63
2022/08/30 06:05:11;;;;;;;3.53;2.80;;;34.30;95.30;;;;;;4143280;28;20057;-62
2022/08/30 06:07:17;;;;;;;3.42;2.53;;;34.20;95.40;;;;;;4146261;28;20045;-62
2022/08/30 06:09:25;;;;;;;4.53;2.50;;;34.30;95.40;;;;;;4153154;28;20057;-63
2022/08/30 06:11:34;;;;;;;2.67;2.33;;;34.20;95.50;;;;;;4162232;28;20110;-63
2022/08/30 06:13:38;;;;;;;4.70;2.70;;;34.20;95.60;;;;;;4162566;28;20077;-62
2022/08/30 06:15:44;;;;;;;3.85;2.83;;;34.10;95.40;;;;;;4162289;28;20516;-63
2022/08/30 06:17:50;;;;;;;3.78;2.70;;;34.10;95.20;;;;;;4162021;28;20046;-63
2022/08/30 06:19:55;;;;;;;5.07;2.50;;;34.00;95.30;;;;;;4162319;28;20443;-63
2022/08/30 06:21:59;;;;;;;4.50;2.63;;;34.00;95.40;;;;;;4161641;28;20041;-63
2022/08/30 06:24:08;;;;;;;4.85;2.80;;;33.90;95.40;;;;;;4161993;28;20049;-62
2022/08/30 06:26:13;;;;;;;6.93;2.78;;;33.90;95.30;;;;;;4161394;28;20072;-63
2022/08/30 06:28:17;;;;;;;3.80;3.05;;;33.80;95.20;;;;;;4161826;28;20060;-62
2022/08/30 06:30:26;;;;;;;3.85;2.78;;;33.70;95.60;;;;;;4161290;28;20064;-62
2022/08/30 06:32:38;;;;;;;4.63;2.97;;;33.70;95.70;;;;;;4159247;28;20080;-62
2022/08/30 06:34:47;;;;;;;5.65;3.00;;;33.70;95.60;;;;;;4162250;28;20057;-63
2022/08/30 06:36:56;;;;;;;4.55;3.05;;;33.70;95.60;;;;;;4162073;28;20056;-62
2022/08/30 06:39:01;;;;;;;5.95;2.92;;;33.70;95.70;;;;;;4160893;28;20682;-62
2022/08/30 06:41:09;;;;;;;3.67;2.85;;;33.70;95.70;;;;;;4161784;28;20045;-62
2022/08/30 06:43:16;;;;;;;4.28;2.53;;;33.70;95.40;;;;;;4161991;28;20040;-62
2022/08/30 06:45:20;;;;;;;6.32;2.88;;;33.70;95.50;;;;;;4161681;28;20042;-63
2022/08/30 06:47:25;;;;;;;3.83;3.00;;;33.60;95.80;;;;;;4161711;28;20140;-62
2022/08/30 06:49:34;;;;;;;6.38;2.75;;;33.60;96.10;;;;;;4162026;28;20053;-62
2022/08/30 06:51:39;;;;;;;5.30;3.60;;;33.60;96.10;;;;;;4162023;28;20171;-63
2022/08/30 06:53:47;;;;;;;6.57;3.85;;;33.60;96.30;;;;;;4162044;28;20777;-63
2022/08/30 06:55:59;;;;;;;7.28;3.88;;;33.50;96.50;;;;;;4161797;28;20049;-63
2022/08/30 06:58:04;;;;;;;8.75;3.75;;;33.50;96.40;;;;;;4161582;28;20053;-63
2022/08/30 07:00:09;;;;;;;4.72;3.20;;;33.40;96.50;;;;;;4161086;28;20491;-62
2022/08/30 07:02:14;;;;;;;5.75;3.75;;;33.40;96.60;;;;;;4161906;28;20045;-62
2022/08/30 07:04:18;;;;;;;4.43;3.00;;;33.30;96.70;;;;;;4161139;28;20076;-63
2022/08/30 07:06:23;;;;;;;5.13;3.13;;;33.30;96.80;;;;;;4161464;28;20132;-63
2022/08/30 07:08:30;;;;;;;6.93;2.92;;;33.20;96.90;;;;;;4161751;28;20068;-62
2022/08/30 07:10:39;;;;;;;10.93;3.13;;;33.30;97.10;;;;;;4145116;28;20050;-62
2022/08/30 07:12:46;;;;;;;7.18;3.47;;;33.30;97.40;;;;;;4144790;28;20137;-62
2022/08/30 07:14:52;;;;;;;5.93;3.10;;;33.30;97.50;;;;;;4145013;28;20046;-62
2022/08/30 07:16:57;;;;;;;8.52;3.92;;;33.30;98.00;;;;;;4145055;28;20140;-63
2022/08/30 07:19:03;;;;;;;10.63;3.90;;;33.20;98.90;;;;;;4145379;28;20608;-63
2022/08/30 07:21:27;;;;;;;6.18;3.85;;;33.20;99.60;;;;;;4109975;28;20071;-63
2022/08/30 07:23:31;;;;;;;8.00;3.60;;;33.20;99.90;;;;;;4151094;28;20628;-63
2022/08/30 07:25:38;;;;;;;6.90;3.38;;;33.20;99.90;;;;;;4161195;28;20042;-63
2022/08/30 07:27:46;;;;;;;3.90;3.25;;;33.10;99.90;;;;;;4161272;28;20152;-63
2022/08/30 07:29:51;;;;;;;9.73;3.28;;;33.10;99.90;;;;;;4159891;28;20530;-62
2022/08/30 07:31:55;;;;;;;4.78;3.30;;;33.10;99.90;;;;;;4161099;28;20051;-62
2022/08/30 07:34:04;;;;;;;9.18;3.97;;;33.10;99.90;;;;;;4161322;28;20049;-63
2022/08/30 07:36:09;;;;;;;8.05;4.30;;;33.20;99.90;;;;;;4159967;28;20053;-62
2022/08/30 07:38:14;;;;;;;6.05;4.05;;;33.10;99.90;;;;;;4161227;28;20500;-62
2022/08/30 07:40:20;;;;;;;5.65;4.15;;;33.20;99.90;;;;;;4161047;28;20535;-62
2022/08/30 07:42:25;;;;;;;8.45;4.25;;;33.30;99.90;;;;;;4161287;28;20745;-62
2022/08/30 07:44:31;;;;;;;5.63;3.83;;;33.30;99.90;;;;;;4161232;28;20046;-62
2022/08/30 07:46:37;;;;;;;7.60;4.22;;;33.40;99.90;;;;;;4161049;28;20052;-62
2022/08/30 07:48:42;;;;;;;6.28;4.18;;;33.50;99.90;;;;;;4160996;28;20045;-62
2022/08/30 07:50:47;;;;;;;9.55;4.20;;;33.60;99.90;;;;;;4160851;28;20102;-62
2022/08/30 07:52:59;;;;;;;4.63;3.58;;;33.60;99.90;;;;;;4161160;28;20444;-62
2022/08/30 07:55:04;;;;;;;4.72;3.53;;;33.80;99.90;;;;;;4160857;28;20050;-62
2022/08/30 07:57:09;;;;;;;4.25;3.35;;;33.90;99.60;;;;;;4160687;28;20041;-62
2022/08/30 07:59:21;;;;;;;4.97;3.28;;;33.90;99.20;;;;;;4160907;28;20076;-63
2022/08/30 08:01:25;;;;;;;4.85;3.00;;;34.00;98.90;;;;;;4160625;28;20065;-63
2022/08/30 08:03:30;;;;;;;4.55;3.00;;;34.00;98.50;;;;;;4160890;28;20068;-63
2022/08/30 08:05:40;;;;;;;6.35;3.28;;;34.10;98.30;;;;;;4160817;28;20045;-62
2022/08/30 08:07:45;;;;;;;6.22;3.00;;;34.00;98.00;;;;;;4161116;28;20484;-63
2022/08/30 08:09:50;;;;;;;6.75;3.50;;;34.10;98.10;;;;;;4160790;28;20536;-63
2022/08/30 08:11:59;;;;;;;8.40;3.03;;;34.10;97.50;;;;;;4175728;28;20049;-62
2022/08/30 08:14:04;;;;;;;3.95;3.00;;;34.10;96.70;;;;;;4160618;28;20137;-63
2022/08/30 08:16:08;;;;;;;3.60;2.60;;;34.10;96.60;;;;;;4160938;28;20106;-63
2022/08/30 08:18:19;;;;;;;3.58;2.72;;;34.10;96.40;;;;;;4158925;28;20053;-64
2022/08/30 08:20:25;;;;;;;5.38;2.90;;;34.00;96.20;;;;;;4160043;28;20713;-64
2022/08/30 08:22:29;;;;;;;4.60;2.85;;;34.00;96.30;;;;;;4160876;28;20041;-64
2022/08/30 08:24:43;;;;;;;3.78;2.67;;;34.00;96.30;;;;;;4160811;28;20449;-65
2022/08/30 08:26:48;;;;;;;3.75;2.70;;;34.00;96.40;;;;;;4160087;28;20673;-62
2022/08/30 08:28:52;;;;;;;5.80;2.90;;;34.00;96.20;;;;;;4160649;28;20087;-62
2022/08/30 08:31:01;;;;;;;6.68;3.13;;;34.00;95.90;;;;;;4160553;28;20052;-62
2022/08/30 08:33:06;;;;;;;4.20;2.80;;;33.90;96.00;;;;;;4160641;28;20053;-62
2022/08/30 08:35:11;;;;;;;11.82;3.85;;;33.90;96.20;;;;;;4158585;28;20048;-62
2022/08/30 08:37:20;;;;;;;8.45;3.25;;;33.90;96.20;;;;;;4160171;28;20504;-62
2022/08/30 08:39:30;;;;;;;4.97;3.28;;;33.80;96.10;;;;;;4159999;28;20111;-62
2022/08/30 08:41:55;;;;;;;4.20;2.70;;;33.70;95.80;;;;;;4161004;28;20141;-62
2022/08/30 08:44:18;;;;;;;4.60;2.40;;;33.50;95.60;;;;;;4144952;28;20034;-63
2022/08/30 08:46:46;;;;;;;6.15;2.75;;;33.20;95.80;;;;;;4145002;28;20041;-63
2022/08/30 08:48:53;;;;;;;5.00;2.67;;;33.30;96.00;;;;;;4145095;28;20046;-64
2022/08/30 08:53:34;;;;;;;4.82;3.22;;;33.30;96.10;;;;;;4145260;28;20053;-64
2022/08/30 08:55:49;;;;;;;6.95;3.08;;;33.10;96.30;;;;;;4161010;28;20056;-63
2022/08/30 08:57:58;;;;;;;5.85;3.78;;;33.10;96.60;;;;;;4125122;28;20053;-64
2022/08/30 09:00:06;;;;;;;6.53;3.03;;;33.20;96.80;;;;;;4161032;28;20180;-64
2022/08/30 09:02:38;;;;;;;7.35;2.90;;;33.20;96.70;;;;;;4161303;28;20503;-64
2022/08/30 09:04:46;;;;;;;2.75;2.05;;;33.20;96.50;;;;;;4164672;28;20123;-64
2022/08/30 09:07:02;;;;;;;2.60;2.17;;;33.00;95.90;;;;;;4163228;28;20042;-65
2022/08/30 09:09:07;;;;;;;4.82;2.60;;;32.70;96.10;;;;;;4164194;28;20064;-64
2022/08/30 09:11:20;;;;;;;3.90;2.60;;;32.60;96.50;;;;;;4145600;28;20131;-64
2022/08/30 09:13:28;;;;;;;5.82;2.97;;;32.70;96.50;;;;;;4147878;28;20054;-64
2022/08/30 09:15:33;;;;;;;5.70;2.63;;;32.80;96.50;;;;;;4147846;28;20053;-64
2022/08/30 09:18:09;;;;;;;4.72;2.30;;;32.90;96.00;;;;;;4147964;28;20133;-64
2022/08/30 09:20:28;;;;;;;4.68;2.70;;;32.90;95.70;;;;;;4147814;28;20050;-64
2022/08/30 09:22:41;;;;;;;8.45;2.90;;;33.00;95.80;;;;;;4148002;28;20100;-64
2022/08/30 09:24:58;;;;;;;5.22;2.53;;;33.00;95.80;;;;;;4147633;28;20045;-64
2022/08/30 09:27:26;;;;;;;3.90;2.58;;;32.90;95.80;;;;;;4147722;28;20125;-65
2022/08/30 09:29:31;;;;;;;5.53;2.88;;;33.00;95.60;;;;;;4147682;28;20046;-65
2022/08/30 09:31:52;;;;;;;4.55;2.25;;;33.00;95.60;;;;;;4147598;28;20480;-65
2022/08/30 09:34:19;;;;;;;7.95;2.78;;;33.00;95.30;;;;;;4147741;28;20107;-64
2022/08/30 09:36:29;;;;;;;6.70;2.50;;;33.00;95.60;;;;;;4147387;28;20806;-64
2022/08/30 09:38:38;;;;;;;5.85;2.20;;;33.00;95.60;;;;;;4147553;28;20129;-65
2022/08/30 09:40:46;;;;;;;6.55;2.00;;;32.90;95.70;;;;;;4162696;28;20046;-64
2022/08/30 09:43:03;;;;;;;4.18;2.30;;;32.90;95.60;;;;;;4163210;28;20112;-64
2022/08/30 09:45:19;;;;;;;5.07;2.53;;;32.90;95.60;;;;;;4161670;28;20587;-63
2022/08/30 09:47:27;;;;;;;;;;;32.90;95.70;;;;;;4161294;28;20042;-63
2022/08/30 09:49:40;;;;;;;2.97;1.95;;;32.80;95.40;;;;;;4162247;28;19967;-65
2022/08/30 09:51:54;;;;;;;3.05;2.22;;;32.90;95.70;;;;;;4160443;28;20057;-63
2022/08/30 09:54:21;;;;;;;6.32;2.80;;;32.90;95.80;;;;;;4163603;28;20057;-62
2022/08/30 09:56:49;;;;;;;6.88;2.80;;;32.80;95.30;;;;;;4159701;28;20064;-64
2022/08/30 09:59:08;;;;;;;3.33;2.58;;;32.70;95.20;;;;;;4160845;28;20084;-63
2022/08/30 10:01:35;;;;;;;3.47;2.58;;;32.60;95.60;;;;;;4160133;28;20053;-63
2022/08/30 10:04:08;;;;;;;4.25;2.75;;;32.70;95.70;;;;;;4161595;28;20099;-64
2022/08/30 10:06:32;;;;;;;4.95;3.47;;;32.70;95.90;;;;;;4159113;28;20083;-63
2022/08/30 10:09:09;;;;;;;7.47;3.58;;;32.80;96.00;;;;;;4161117;28;20092;-63
2022/08/30 10:11:36;;;;;;;6.15;2.95;;;32.70;95.80;;;;;;4147061;28;20111;-62
2022/08/30 10:14:09;;;;;;;6.63;3.35;;;32.80;96.20;;;;;;4145661;28;20104;-63
2022/08/30 10:16:45;;;;;;;10.43;4.00;;;32.70;96.30;;;;;;4162341;28;20053;-63
2022/08/30 10:19:31;;;;;;;6.90;4.55;;;32.70;96.60;;;;;;4163436;28;20061;-63
2022/08/30 10:21:48;;;;;;;8.30;5.53;;;32.70;96.60;;;;;;4163046;28;20068;-62
2022/08/30 10:24:00;;;;;;;8.73;5.07;;;32.70;96.50;;;;;;4162340;28;20550;-63
2022/08/30 10:26:28;;;;;;;10.38;6.60;;;32.70;96.50;;;;;;4159024;28;20564;-63
2022/08/30 10:28:47;;;;;;;9.40;5.70;;;32.70;96.50;;;;;;4160131;28;20049;-64
2022/08/30 10:31:06;;;;;;;6.80;4.57;;;32.70;96.60;;;;;;4159828;28;20041;-64
2022/08/30 10:33:38;;;;;;;5.50;4.07;;;32.70;96.90;;;;;;4159032;28;20081;-63
2022/08/30 10:35:48;;;;;;;6.85;3.65;;;32.70;97.00;;;;;;4161252;28;20156;-63
2022/08/30 10:38:16;;;;;;;5.85;3.25;;;32.70;96.90;;;;;;4160093;28;20534;-65
2022/08/30 10:42:48;;;;;;;10.20;6.05;;;32.70;97.00;;;;;;4159047;28;20048;-65
2022/08/30 10:44:57;;;;;;;40.42;31.50;;;32.60;97.10;;;;;;4161478;28;20045;-65
2022/08/30 10:47:38;;;;;;;46.10;33.03;;;32.60;97.10;;;;;;4159328;28;20079;-64
2022/08/30 10:49:45;;;;;;;19.95;14.80;;;32.60;97.30;;;;;;4160961;28;20648;-65
2022/08/30 10:52:23;;;;;;;12.00;8.68;;;32.50;97.20;;;;;;4159687;28;20037;-65
2022/08/30 10:54:43;;;;;;;7.38;5.43;;;32.50;97.10;;;;;;4160947;28;20064;-63
2022/08/30 10:56:50;;;;;;;9.68;5.57;;;32.50;97.30;;;;;;4159740;28;20080;-64
2022/08/30 10:58:58;;;;;;;10.80;6.15;;;32.40;97.40;;;;;;4161569;28;20057;-63
2022/08/30 11:01:15;;;;;;;11.90;6.97;;;32.40;97.60;;;;;;4161382;28;20049;-64
2022/08/30 11:03:46;;;;;;;12.38;7.35;;;32.40;97.70;;;;;;4158475;28;20115;-63
2022/08/30 11:06:15;;;;;;;9.65;5.50;;;32.40;97.90;;;;;;4158921;28;20561;-64
2022/08/30 11:08:38;;;;;;;7.70;4.50;;;32.30;98.10;;;;;;4159170;28;20068;-62
2022/08/30 11:11:02;;;;;;;7.13;4.28;;;32.30;98.20;;;;;;4159941;28;20046;-63
2022/08/30 11:13:18;;;;;;;;;;;32.20;98.50;;;;;;4160074;28;20064;-63
2022/08/30 11:15:25;;;;;;;11.95;5.28;;;32.10;98.60;;;;;;4159916;28;19932;-62
2022/08/30 11:17:36;;;;;;;8.27;5.05;;;32.10;98.60;;;;;;4158095;28;20049;-63